createdAt,value
2022-11-18T00:00:47.603Z,6.30
2022-11-18T00:01:47.637Z,6.39
2022-11-18T00:02:47.610Z,6.42
2022-11-18T00:03:47.582Z,6.41
2022-11-18T00:04:47.578Z,6.36
2022-11-18T00:05:47.563Z,6.42
2022-11-18T00:06:47.555Z,6.42
2022-11-18T00:07:47.569Z,6.46
2022-11-18T00:08:47.568Z,6.42
2022-11-18T00:09:47.530Z,6.42
2022-11-18T00:10:47.524Z,6.46
2022-11-18T00:11:47.517Z,6.41
2022-11-18T00:12:47.538Z,6.42
2022-11-18T00:13:47.504Z,6.54
2022-11-18T00:14:47.503Z,6.49
2022-11-18T00:15:47.491Z,6.48
2022-11-18T00:16:49.055Z,6.54
2022-11-18T00:17:47.474Z,6.44
2022-11-18T00:18:47.491Z,6.63
2022-11-18T00:19:47.580Z,6.62
2022-11-18T00:21:23.683Z,6.56
2022-11-18T00:21:47.514Z,6.38
2022-11-18T00:22:47.462Z,6.46
2022-11-18T00:23:47.533Z,6.44
2022-11-18T00:24:47.476Z,6.36
2022-11-18T00:25:47.508Z,6.30
2022-11-18T00:26:47.461Z,6.36
2022-11-18T00:27:47.510Z,6.36
2022-11-18T00:28:47.454Z,6.26
2022-11-18T00:29:47.408Z,6.31
2022-11-18T00:30:47.381Z,6.24
2022-11-18T00:31:47.390Z,6.28
2022-11-18T00:32:47.375Z,6.16
2022-11-18T00:33:47.475Z,6.20
2022-11-18T00:34:47.348Z,6.26
2022-11-18T00:35:47.370Z,6.44
2022-11-18T00:36:47.351Z,6.42
2022-11-18T00:37:47.336Z,6.36
2022-11-18T00:38:47.379Z,6.38
2022-11-18T00:39:47.329Z,6.38
2022-11-18T00:40:47.325Z,6.36
2022-11-18T00:41:47.315Z,6.39
2022-11-18T00:42:47.334Z,6.28
2022-11-18T00:43:47.333Z,6.42
2022-11-18T00:44:47.290Z,6.26
2022-11-18T00:45:47.282Z,6.27
2022-11-18T00:46:47.276Z,6.28
2022-11-18T00:47:47.273Z,6.28
2022-11-18T00:48:47.281Z,6.38
2022-11-18T00:49:47.272Z,6.24
2022-11-18T00:50:47.252Z,6.19
2022-11-18T00:51:47.220Z,6.07
2022-11-18T00:52:47.232Z,6.09
2022-11-18T00:53:47.242Z,6.07
2022-11-18T00:54:47.200Z,6.17
2022-11-18T00:55:47.199Z,6.07
2022-11-18T00:56:47.176Z,6.22
2022-11-18T00:57:47.199Z,6.12
2022-11-18T00:58:47.193Z,6.24
2022-11-18T00:59:47.148Z,6.30
2022-11-18T01:00:47.189Z,6.17
2022-11-18T01:01:47.204Z,6.30
2022-11-18T01:02:47.163Z,6.38
2022-11-18T01:03:47.171Z,6.30
2022-11-18T01:04:47.105Z,6.39
2022-11-18T01:05:47.107Z,6.35
2022-11-18T01:06:47.094Z,6.33
2022-11-18T01:07:47.087Z,6.42
2022-11-18T01:08:47.113Z,6.31
2022-11-18T01:09:47.073Z,6.38
2022-11-18T01:10:47.057Z,6.36
2022-11-18T01:11:47.054Z,6.27
2022-11-18T01:12:51.482Z,6.31
2022-11-18T01:13:49.075Z,6.35
2022-11-18T01:14:47.033Z,6.39
2022-11-18T01:15:47.027Z,6.33
2022-11-18T01:16:47.029Z,6.45
2022-11-18T01:17:47.015Z,6.30
2022-11-18T01:18:47.032Z,6.33
2022-11-18T01:19:47.002Z,6.35
2022-11-18T01:20:46.996Z,6.31
2022-11-18T01:21:46.980Z,6.38
2022-11-18T01:22:46.968Z,6.33
2022-11-18T01:23:46.991Z,6.27
2022-11-18T01:24:46.948Z,6.36
2022-11-18T01:25:46.941Z,6.33
2022-11-18T01:26:46.947Z,6.41
2022-11-18T01:27:46.923Z,6.36
2022-11-18T01:28:46.957Z,6.41
2022-11-18T01:29:46.916Z,6.45
2022-11-18T01:30:46.904Z,6.48
2022-11-18T01:32:09.148Z,6.51
2022-11-18T01:32:48.897Z,6.48
2022-11-18T01:33:46.997Z,6.57
2022-11-18T01:34:46.876Z,6.63
2022-11-18T01:35:46.863Z,6.59
2022-11-18T01:36:46.858Z,6.63
2022-11-18T01:37:46.853Z,6.59
2022-11-18T01:38:46.881Z,6.57
2022-11-18T01:39:46.836Z,6.56
2022-11-18T01:40:46.826Z,6.57
2022-11-18T01:41:46.819Z,6.51
2022-11-18T01:42:46.808Z,6.48
2022-11-18T01:43:46.868Z,6.45
2022-11-18T01:44:46.792Z,6.44
2022-11-18T01:45:46.774Z,6.41
2022-11-18T01:46:47.776Z,6.42
2022-11-18T01:47:46.770Z,6.45
2022-11-18T01:48:46.806Z,6.39
2022-11-18T01:49:46.770Z,6.41
2022-11-18T01:50:46.768Z,6.45
2022-11-18T01:51:46.742Z,6.52
2022-11-18T01:52:51.437Z,6.44
2022-11-18T01:53:48.749Z,6.56
2022-11-18T01:54:46.722Z,6.56
2022-11-18T01:55:46.710Z,6.57
2022-11-18T01:56:46.708Z,6.63
2022-11-18T01:57:46.698Z,6.54
2022-11-18T01:58:46.690Z,6.63
2022-11-18T01:59:46.713Z,6.64
2022-11-18T02:00:46.672Z,6.67
2022-11-18T02:01:46.743Z,6.62
2022-11-18T02:02:46.655Z,6.66
2022-11-18T02:03:46.653Z,6.56
2022-11-18T02:04:46.668Z,6.60
2022-11-18T02:05:46.632Z,6.62
2022-11-18T02:06:46.623Z,6.63
2022-11-18T02:07:46.630Z,6.70
2022-11-18T02:08:46.606Z,6.78
2022-11-18T02:09:46.620Z,6.82
2022-11-18T02:10:46.595Z,6.82
2022-11-18T02:11:46.612Z,6.88
2022-11-18T02:12:46.613Z,6.84
2022-11-18T02:13:46.566Z,6.93
2022-11-18T02:14:46.600Z,6.88
2022-11-18T02:15:46.560Z,6.96
2022-11-18T02:16:46.547Z,6.92
2022-11-18T02:17:46.579Z,6.82
2022-11-18T02:18:46.553Z,6.85
2022-11-18T02:19:46.594Z,6.88
2022-11-18T02:20:46.516Z,6.88
2022-11-18T02:21:46.515Z,6.81
2022-11-18T02:22:46.509Z,6.97
2022-11-18T02:23:46.500Z,7.02
2022-11-18T02:24:46.538Z,6.89
2022-11-18T02:25:46.477Z,7.05
2022-11-18T02:26:46.471Z,7.00
2022-11-18T02:27:46.487Z,6.84
2022-11-18T02:28:46.463Z,7.02
2022-11-18T02:29:46.491Z,6.79
2022-11-18T02:30:46.449Z,6.87
2022-11-18T02:31:46.439Z,6.81
2022-11-18T02:32:46.432Z,6.67
2022-11-18T02:33:46.536Z,6.70
2022-11-18T02:34:46.444Z,6.81
2022-11-18T02:35:46.408Z,6.62
2022-11-18T02:36:46.396Z,6.67
2022-11-18T02:37:46.393Z,6.67
2022-11-18T02:38:46.382Z,6.67
2022-11-18T02:39:46.424Z,6.74
2022-11-18T02:40:46.371Z,6.78
2022-11-18T02:41:46.418Z,6.85
2022-11-18T02:42:46.355Z,6.78
2022-11-18T02:43:46.369Z,6.79
2022-11-18T02:44:46.372Z,6.89
2022-11-18T02:45:46.335Z,6.87
2022-11-18T02:46:46.324Z,6.87
2022-11-18T02:47:46.331Z,6.93
2022-11-18T02:48:46.316Z,7.02
2022-11-18T02:49:46.344Z,6.84
2022-11-18T02:50:46.336Z,6.81
2022-11-18T02:51:46.292Z,6.93
2022-11-18T02:52:46.279Z,6.88
2022-11-18T02:53:46.273Z,6.92
2022-11-18T02:54:46.275Z,6.95
2022-11-18T02:55:46.287Z,6.79
2022-11-18T02:56:46.266Z,6.84
2022-11-18T02:57:46.265Z,6.93
2022-11-18T02:58:46.240Z,6.99
2022-11-18T02:59:46.237Z,6.89
2022-11-18T03:00:46.246Z,6.99
2022-11-18T03:01:46.281Z,7.05
2022-11-18T03:02:46.206Z,7.14
2022-11-18T03:03:46.210Z,7.07
2022-11-18T03:04:46.203Z,7.02
2022-11-18T03:05:46.224Z,6.92
2022-11-18T03:06:46.183Z,7.00
2022-11-18T03:07:46.174Z,6.85
2022-11-18T03:08:46.173Z,6.82
2022-11-18T03:09:46.156Z,6.63
2022-11-18T03:10:46.189Z,6.75
2022-11-18T03:11:46.152Z,6.87
2022-11-18T03:12:46.132Z,6.88
2022-11-18T03:13:46.142Z,6.77
2022-11-18T03:14:46.110Z,6.89
2022-11-18T03:15:46.141Z,6.87
2022-11-18T03:16:46.100Z,6.88
2022-11-18T03:17:46.095Z,7.03
2022-11-18T03:18:46.095Z,6.93
2022-11-18T03:19:46.081Z,6.85
2022-11-18T03:20:46.104Z,6.85
2022-11-18T03:21:46.066Z,6.82
2022-11-18T03:22:46.061Z,6.78
2022-11-18T03:23:46.078Z,6.79
2022-11-18T03:24:46.038Z,6.75
2022-11-18T03:25:46.059Z,6.77
2022-11-18T03:26:46.049Z,6.87
2022-11-18T03:27:46.015Z,6.81
2022-11-18T03:28:46.010Z,6.93
2022-11-18T03:29:46.012Z,6.93
2022-11-18T03:30:46.014Z,6.96
2022-11-18T03:31:45.985Z,6.85
2022-11-18T03:32:45.983Z,6.97
2022-11-18T03:33:45.969Z,6.87
2022-11-18T03:34:45.960Z,6.97
2022-11-18T03:35:45.980Z,6.81
2022-11-18T03:36:49.999Z,6.93
2022-11-18T03:37:47.939Z,6.89
2022-11-18T03:38:45.932Z,6.97
2022-11-18T03:39:45.934Z,6.93
2022-11-18T03:40:45.943Z,6.97
2022-11-18T03:41:45.914Z,6.87
2022-11-18T03:42:45.904Z,6.96
2022-11-18T03:43:45.911Z,6.99
2022-11-18T03:44:49.687Z,6.88
2022-11-18T03:45:47.913Z,7.06
2022-11-18T03:46:45.880Z,6.99
2022-11-18T03:47:45.864Z,6.96
2022-11-18T03:48:45.860Z,6.97
2022-11-18T03:49:45.845Z,6.99
2022-11-18T03:50:45.868Z,7.00
2022-11-18T03:51:45.841Z,7.05
2022-11-18T03:52:45.824Z,6.99
2022-11-18T03:53:45.832Z,6.99
2022-11-18T03:54:45.816Z,7.03
2022-11-18T03:55:45.843Z,7.05
2022-11-18T03:56:45.803Z,7.07
2022-11-18T03:57:45.794Z,7.06
2022-11-18T03:58:45.785Z,7.00
2022-11-18T03:59:45.776Z,7.02
2022-11-18T04:00:45.790Z,7.07
2022-11-18T04:01:45.886Z,6.97
2022-11-18T04:02:45.745Z,6.97
2022-11-18T04:03:45.752Z,7.00
2022-11-18T04:04:45.741Z,7.13
2022-11-18T04:05:45.749Z,7.10
2022-11-18T04:06:45.728Z,7.14
2022-11-18T04:07:45.786Z,7.11
2022-11-18T04:08:45.711Z,7.10
2022-11-18T04:09:45.704Z,7.10
2022-11-18T04:10:45.719Z,7.11
2022-11-18T04:11:45.690Z,7.07
2022-11-18T04:12:45.689Z,6.93
2022-11-18T04:13:45.667Z,7.05
2022-11-18T04:14:45.666Z,7.13
2022-11-18T04:15:45.681Z,7.03
2022-11-18T04:16:45.649Z,7.06
2022-11-18T04:17:45.682Z,6.99
2022-11-18T04:18:45.650Z,7.00
2022-11-18T04:19:45.619Z,7.03
2022-11-18T04:20:45.644Z,7.03
2022-11-18T04:21:45.617Z,7.06
2022-11-18T04:22:45.594Z,6.97
2022-11-18T04:23:45.588Z,7.05
2022-11-18T04:24:45.580Z,7.10
2022-11-18T04:25:45.574Z,7.05
2022-11-18T04:26:45.591Z,7.15
2022-11-18T04:27:45.561Z,7.11
2022-11-18T04:28:45.576Z,7.13
2022-11-18T04:29:45.604Z,7.00
2022-11-18T04:30:45.544Z,6.99
2022-11-18T04:31:45.551Z,6.97
2022-11-18T04:32:45.525Z,7.03
2022-11-18T04:33:45.522Z,7.06
2022-11-18T04:34:45.494Z,7.10
2022-11-18T04:35:46.506Z,7.05
2022-11-18T04:36:45.514Z,7.02
2022-11-18T04:37:45.482Z,7.00
2022-11-18T04:38:45.497Z,7.14
2022-11-18T04:39:45.480Z,7.03
2022-11-18T04:40:45.455Z,7.06
2022-11-18T04:41:45.488Z,7.11
2022-11-18T04:42:45.453Z,7.18
2022-11-18T04:43:45.437Z,7.10
2022-11-18T04:44:45.426Z,7.17
2022-11-18T04:45:45.425Z,7.14
2022-11-18T04:46:45.438Z,7.18
2022-11-18T04:47:45.407Z,7.21
2022-11-18T04:48:45.397Z,7.11
2022-11-18T04:49:45.398Z,7.13
2022-11-18T04:50:45.388Z,7.13
2022-11-18T04:51:45.413Z,7.05
2022-11-18T04:52:45.383Z,7.25
2022-11-18T04:53:45.362Z,7.18
2022-11-18T04:54:45.361Z,7.25
2022-11-18T04:55:45.346Z,7.23
2022-11-18T04:56:48.984Z,7.25
2022-11-18T04:57:46.330Z,7.25
2022-11-18T04:58:45.327Z,7.20
2022-11-18T04:59:45.318Z,7.15
2022-11-18T05:00:45.309Z,7.20
2022-11-18T05:01:45.376Z,7.25
2022-11-18T05:02:45.293Z,7.15
2022-11-18T05:03:50.375Z,7.18
2022-11-18T05:04:47.285Z,7.25
2022-11-18T05:05:45.271Z,7.24
2022-11-18T05:06:45.294Z,7.31
2022-11-18T05:07:45.325Z,7.32
2022-11-18T05:08:45.251Z,7.28
2022-11-18T05:09:45.242Z,7.31
2022-11-18T05:10:45.242Z,7.24
2022-11-18T05:11:45.263Z,7.35
2022-11-18T05:12:45.217Z,7.45
2022-11-18T05:13:45.209Z,7.35
2022-11-18T05:14:49.594Z,7.32
2022-11-18T05:15:47.191Z,7.35
2022-11-18T05:16:45.208Z,7.32
2022-11-18T05:17:45.173Z,7.29
2022-11-18T05:18:45.169Z,7.29
2022-11-18T05:19:45.163Z,7.36
2022-11-18T05:20:45.176Z,7.40
2022-11-18T05:21:45.174Z,7.35
2022-11-18T05:22:45.172Z,7.39
2022-11-18T05:23:45.130Z,7.39
2022-11-18T05:24:45.126Z,7.36
2022-11-18T05:25:45.116Z,7.36
2022-11-18T05:26:45.132Z,7.36
2022-11-18T05:27:45.098Z,7.38
2022-11-18T05:28:45.097Z,7.42
2022-11-18T05:29:45.089Z,7.42
2022-11-18T05:30:45.082Z,7.38
2022-11-18T05:31:45.129Z,7.43
2022-11-18T05:32:45.064Z,7.35
2022-11-18T05:33:45.067Z,7.32
2022-11-18T05:34:45.048Z,7.39
2022-11-18T05:35:45.044Z,7.33
2022-11-18T05:36:45.037Z,7.35
2022-11-18T05:37:45.051Z,7.33
2022-11-18T05:38:45.029Z,7.38
2022-11-18T05:39:45.013Z,7.48
2022-11-18T05:40:45.025Z,7.33
2022-11-18T05:41:44.994Z,7.40
2022-11-18T05:42:45.014Z,7.43
2022-11-18T05:43:44.976Z,7.51
2022-11-18T05:44:44.986Z,7.51
2022-11-18T05:45:44.965Z,7.45
2022-11-18T05:46:44.959Z,7.48
2022-11-18T05:47:44.976Z,7.43
2022-11-18T05:48:44.945Z,7.58
2022-11-18T05:49:45.004Z,7.58
2022-11-18T05:50:44.934Z,7.53
2022-11-18T05:51:44.921Z,7.39
2022-11-18T05:52:44.944Z,7.42
2022-11-18T05:53:44.904Z,7.42
2022-11-18T05:54:44.911Z,7.39
2022-11-18T05:55:44.891Z,7.31
2022-11-18T05:56:44.881Z,7.40
2022-11-18T05:57:44.904Z,7.42
2022-11-18T05:58:44.879Z,7.50
2022-11-18T05:59:44.856Z,7.51
2022-11-18T06:00:44.865Z,7.47
2022-11-18T06:01:44.851Z,7.58
2022-11-18T06:02:44.891Z,7.60
2022-11-18T06:03:44.834Z,7.48
2022-11-18T06:04:44.849Z,7.53
2022-11-18T06:05:44.816Z,7.40
2022-11-18T06:06:44.809Z,7.48
2022-11-18T06:07:44.914Z,7.36
2022-11-18T06:08:44.789Z,7.29
2022-11-18T06:09:44.785Z,7.31
2022-11-18T06:10:44.774Z,7.35
2022-11-18T06:11:44.772Z,7.31
2022-11-18T06:12:44.788Z,7.38
2022-11-18T06:13:44.751Z,7.36
2022-11-18T06:14:44.745Z,7.32
2022-11-18T06:15:44.733Z,7.32
2022-11-18T06:16:44.744Z,7.35
2022-11-18T06:17:44.744Z,7.38
2022-11-18T06:18:44.711Z,7.39
2022-11-18T06:19:44.698Z,7.35
2022-11-18T06:21:17.254Z,7.51
2022-11-18T06:21:44.685Z,7.50
2022-11-18T06:22:46.649Z,7.54
2022-11-18T06:23:45.672Z,7.53
2022-11-18T06:24:44.665Z,7.48
2022-11-18T06:25:44.652Z,7.48
2022-11-18T06:26:44.653Z,7.56
2022-11-18T06:27:44.662Z,7.43
2022-11-18T06:28:44.634Z,7.47
2022-11-18T06:29:44.693Z,7.57
2022-11-18T06:30:44.626Z,7.61
2022-11-18T06:31:44.622Z,7.54
2022-11-18T06:32:44.799Z,7.54
2022-11-18T06:33:44.594Z,7.61
2022-11-18T06:34:44.591Z,7.67
2022-11-18T06:35:44.584Z,7.58
2022-11-18T06:36:44.566Z,7.54
2022-11-18T06:37:44.582Z,7.50
2022-11-18T06:38:44.571Z,7.58
2022-11-18T06:39:44.551Z,7.61
2022-11-18T06:40:44.597Z,7.60
2022-11-18T06:41:44.536Z,7.66
2022-11-18T06:42:44.568Z,7.67
2022-11-18T06:43:44.530Z,7.61
2022-11-18T06:44:44.595Z,7.57
2022-11-18T06:45:44.513Z,7.50
2022-11-18T06:46:44.493Z,7.63
2022-11-18T06:47:44.917Z,7.53
2022-11-18T06:48:44.518Z,7.39
2022-11-18T06:49:44.469Z,7.42
2022-11-18T06:50:44.471Z,7.42
2022-11-18T06:51:44.466Z,7.48
2022-11-18T06:52:44.476Z,7.45
2022-11-18T06:53:44.436Z,7.48
2022-11-18T06:54:44.442Z,7.50
2022-11-18T06:55:44.526Z,7.50
2022-11-18T06:56:44.424Z,7.60
2022-11-18T06:57:44.679Z,7.61
2022-11-18T06:58:44.432Z,7.61
2022-11-18T06:59:44.401Z,7.72
2022-11-18T07:00:44.433Z,7.66
2022-11-18T07:01:44.384Z,7.60
2022-11-18T07:02:44.439Z,7.67
2022-11-18T07:03:44.418Z,7.57
2022-11-18T07:04:44.352Z,7.56
2022-11-18T07:05:44.347Z,7.58
2022-11-18T07:06:44.339Z,7.57
2022-11-18T07:07:44.429Z,7.67
2022-11-18T07:08:44.338Z,7.58
2022-11-18T07:09:44.316Z,7.67
2022-11-18T07:10:44.306Z,7.61
2022-11-18T07:11:44.294Z,7.61
2022-11-18T07:12:44.320Z,7.61
2022-11-18T07:13:44.281Z,7.58
2022-11-18T07:14:44.280Z,7.67
2022-11-18T07:15:44.276Z,7.69
2022-11-18T07:16:44.265Z,7.75
2022-11-18T07:17:44.247Z,7.73
2022-11-18T07:18:44.272Z,7.79
2022-11-18T07:19:44.242Z,7.80
2022-11-18T07:20:44.226Z,7.83
2022-11-18T07:21:44.236Z,7.76
2022-11-18T07:22:44.203Z,7.85
2022-11-18T07:23:44.257Z,7.79
2022-11-18T07:24:44.199Z,7.77
2022-11-18T07:25:45.405Z,7.80
2022-11-18T07:26:45.251Z,7.82
2022-11-18T07:27:44.170Z,7.83
2022-11-18T07:28:44.183Z,7.83
2022-11-18T07:29:44.169Z,7.88
2022-11-18T07:30:44.148Z,7.90
2022-11-18T07:31:44.137Z,7.88
2022-11-18T07:32:44.134Z,7.82
2022-11-18T07:33:44.144Z,7.80
2022-11-18T07:34:44.118Z,7.80
2022-11-18T07:35:44.113Z,7.83
2022-11-18T07:36:44.129Z,7.91
2022-11-18T07:37:44.101Z,7.94
2022-11-18T07:38:44.130Z,7.94
2022-11-18T07:39:44.120Z,7.95
2022-11-18T07:40:44.077Z,7.85
2022-11-18T07:41:44.065Z,8.03
2022-11-18T07:42:44.059Z,8.06
2022-11-18T07:43:44.078Z,8.08
2022-11-18T07:44:44.038Z,8.06
2022-11-18T07:45:44.033Z,8.08
2022-11-18T07:46:44.026Z,8.09
2022-11-18T07:47:44.018Z,8.00
2022-11-18T07:48:44.038Z,8.00
2022-11-18T07:49:44.003Z,8.00
2022-11-18T07:50:47.159Z,8.09
2022-11-18T07:51:45.023Z,8.00
2022-11-18T07:52:43.981Z,8.12
2022-11-18T07:53:44.001Z,8.05
2022-11-18T07:54:43.977Z,8.00
2022-11-18T07:55:43.962Z,8.08
2022-11-18T07:56:43.950Z,8.06
2022-11-18T07:57:43.946Z,8.09
2022-11-18T07:58:43.966Z,8.09
2022-11-18T07:59:43.935Z,8.08
2022-11-18T08:00:43.920Z,8.09
2022-11-18T08:01:44.002Z,8.10
2022-11-18T08:02:43.908Z,8.00
2022-11-18T08:03:43.948Z,8.01
2022-11-18T08:04:44.019Z,8.00
2022-11-18T08:05:43.874Z,8.06
2022-11-18T08:06:43.887Z,8.15
2022-11-18T08:07:43.885Z,8.16
2022-11-18T08:08:43.912Z,8.23
2022-11-18T08:09:43.879Z,8.20
2022-11-18T08:10:43.845Z,8.24
2022-11-18T08:11:44.773Z,8.28
2022-11-18T08:12:43.825Z,8.37
2022-11-18T08:13:43.845Z,8.38
2022-11-18T08:14:43.816Z,8.42
2022-11-18T08:15:43.819Z,8.45
2022-11-18T08:16:43.800Z,8.37
2022-11-18T08:17:43.792Z,8.41
2022-11-18T08:18:43.781Z,8.33
2022-11-18T08:19:43.800Z,8.28
2022-11-18T08:20:43.774Z,8.24
2022-11-18T08:21:43.769Z,8.18
2022-11-18T08:22:43.770Z,8.06
2022-11-18T08:23:43.758Z,8.19
2022-11-18T08:24:43.783Z,8.16
2022-11-18T08:25:43.730Z,8.12
2022-11-18T08:26:43.732Z,8.12
2022-11-18T08:27:43.720Z,8.10
2022-11-18T08:28:43.814Z,7.98
2022-11-18T08:29:43.728Z,7.97
2022-11-18T08:30:43.696Z,7.98
2022-11-18T08:31:43.707Z,7.83
2022-11-18T08:32:43.688Z,7.72
2022-11-18T08:33:43.670Z,7.72
2022-11-18T08:34:43.700Z,7.87
2022-11-18T08:35:43.666Z,7.77
2022-11-18T08:36:43.659Z,7.83
2022-11-18T08:37:43.650Z,7.80
2022-11-18T08:38:43.641Z,7.88
2022-11-18T08:39:43.659Z,7.94
2022-11-18T08:40:43.618Z,8.01
2022-11-18T08:41:43.615Z,8.05
2022-11-18T08:42:43.601Z,7.90
2022-11-18T08:43:43.599Z,7.87
2022-11-18T08:44:43.609Z,7.76
2022-11-18T08:45:43.588Z,7.76
2022-11-18T08:46:43.590Z,7.85
2022-11-18T08:47:43.568Z,7.83
2022-11-18T08:48:43.553Z,7.80
2022-11-18T08:49:43.579Z,7.77
2022-11-18T08:50:43.544Z,7.88
2022-11-18T08:51:43.558Z,7.82
2022-11-18T08:52:43.527Z,7.79
2022-11-18T08:53:43.521Z,7.80
2022-11-18T08:54:43.564Z,7.85
2022-11-18T08:55:43.497Z,7.91
2022-11-18T08:56:43.499Z,8.01
2022-11-18T08:57:43.491Z,8.01
2022-11-18T08:58:43.469Z,8.05
2022-11-18T08:59:44.502Z,8.10
2022-11-18T09:00:43.483Z,7.95
2022-11-18T09:01:43.525Z,7.97
2022-11-18T09:02:44.315Z,7.94
2022-11-18T09:03:43.444Z,7.97
2022-11-18T09:04:43.469Z,7.95
2022-11-18T09:05:43.442Z,8.06
2022-11-18T09:06:43.421Z,8.05
2022-11-18T09:07:43.461Z,7.93
2022-11-18T09:08:43.402Z,7.88
2022-11-18T09:09:43.437Z,7.97
2022-11-18T09:10:43.391Z,7.82
2022-11-18T09:11:43.390Z,7.93
2022-11-18T09:12:43.374Z,7.95
2022-11-18T09:15:15.404Z,8.09
2022-11-18T09:15:45.370Z,7.94
2022-11-18T09:16:43.345Z,7.95
2022-11-18T09:17:43.335Z,8.00
2022-11-18T09:18:43.337Z,7.95
2022-11-18T09:19:48.101Z,8.01
2022-11-18T09:20:45.318Z,8.01
2022-11-18T09:21:43.368Z,7.95
2022-11-18T09:22:43.316Z,7.95
2022-11-18T09:23:43.334Z,8.08
2022-11-18T09:24:43.315Z,8.09
2022-11-18T09:25:43.388Z,7.97
2022-11-18T09:26:43.281Z,7.94
2022-11-18T09:27:43.263Z,7.95
2022-11-18T09:28:43.265Z,8.00
2022-11-18T09:29:43.271Z,7.97
2022-11-18T09:30:43.268Z,8.01
2022-11-18T09:31:43.231Z,7.97
2022-11-18T09:32:43.229Z,7.97
2022-11-18T09:33:43.250Z,7.93
2022-11-18T09:34:43.223Z,8.00
2022-11-18T09:35:43.251Z,8.15
2022-11-18T09:36:43.205Z,8.05
2022-11-18T09:37:43.179Z,8.03
2022-11-18T09:38:43.176Z,8.05
2022-11-18T09:39:43.180Z,8.06
2022-11-18T09:40:43.196Z,8.13
2022-11-18T09:41:43.164Z,8.10
2022-11-18T09:42:43.155Z,8.03
2022-11-18T09:43:43.152Z,8.01
2022-11-18T09:44:43.135Z,8.03
2022-11-18T09:45:43.177Z,8.15
2022-11-18T09:46:43.169Z,8.20
2022-11-18T09:47:43.122Z,8.13
2022-11-18T09:48:43.103Z,8.09
2022-11-18T09:49:43.097Z,8.10
2022-11-18T09:50:49.575Z,7.93
2022-11-18T09:51:45.092Z,8.03
2022-11-18T09:52:43.308Z,8.00
2022-11-18T09:53:43.068Z,8.09
2022-11-18T09:54:43.063Z,8.01
2022-11-18T09:55:43.081Z,7.95
2022-11-18T09:56:43.099Z,8.01
2022-11-18T09:57:43.044Z,8.08
2022-11-18T09:58:43.026Z,7.95
2022-11-18T09:59:43.021Z,8.00
2022-11-18T10:00:43.036Z,7.94
2022-11-18T10:01:43.161Z,8.06
2022-11-18T10:02:43.025Z,8.05
2022-11-18T10:03:43.007Z,8.05
2022-11-18T10:04:42.981Z,8.10
2022-11-18T10:05:43.006Z,8.10
2022-11-18T10:06:42.964Z,8.10
2022-11-18T10:07:43.001Z,8.05
2022-11-18T10:08:42.957Z,8.15
2022-11-18T10:09:42.933Z,8.18
2022-11-18T10:10:42.956Z,8.24
2022-11-18T10:11:47.574Z,8.31
2022-11-18T10:12:44.918Z,8.26
2022-11-18T10:13:42.913Z,8.12
2022-11-18T10:14:42.901Z,8.20
2022-11-18T10:15:42.924Z,8.16
2022-11-18T10:16:42.976Z,8.24
2022-11-18T10:17:42.877Z,8.09
2022-11-18T10:18:59.682Z,8.09
2022-11-18T10:19:44.859Z,8.28
2022-11-18T10:20:42.887Z,8.27
2022-11-18T10:21:42.858Z,8.28
2022-11-18T10:22:42.836Z,8.28
2022-11-18T10:23:42.838Z,8.34
2022-11-18T10:24:43.438Z,8.23
2022-11-18T10:25:42.868Z,8.30
2022-11-18T10:26:42.811Z,8.09
2022-11-18T10:27:42.801Z,8.19
2022-11-18T10:28:42.813Z,8.18
2022-11-18T10:29:42.796Z,8.08
2022-11-18T10:30:42.876Z,8.06
2022-11-18T10:31:42.771Z,8.03
2022-11-18T10:32:42.771Z,7.97
2022-11-18T10:33:42.763Z,8.09
2022-11-18T10:34:42.752Z,8.03
2022-11-18T10:35:42.766Z,8.05
2022-11-18T10:36:42.736Z,8.00
2022-11-18T10:38:06.847Z,8.03
2022-11-18T10:38:49.776Z,8.08
2022-11-18T10:39:44.721Z,8.03
2022-11-18T10:40:42.724Z,7.90
2022-11-18T10:41:42.698Z,7.98
2022-11-18T10:42:42.693Z,8.10
2022-11-18T10:43:42.672Z,8.27
2022-11-18T10:44:43.680Z,8.26
2022-11-18T10:45:42.690Z,8.05
2022-11-18T10:46:42.653Z,8.09
2022-11-18T10:47:42.645Z,8.06
2022-11-18T10:48:42.640Z,7.94
2022-11-18T10:49:42.638Z,7.94
2022-11-18T10:50:42.646Z,7.82
2022-11-18T10:51:42.630Z,7.82
2022-11-18T10:52:42.615Z,7.91
2022-11-18T10:53:42.635Z,7.93
2022-11-18T10:54:42.630Z,7.77
2022-11-18T10:55:42.620Z,7.80
2022-11-18T10:56:42.580Z,7.82
2022-11-18T10:57:42.572Z,7.90
2022-11-18T10:58:42.566Z,7.94
2022-11-18T10:59:42.579Z,7.87
2022-11-18T11:00:42.583Z,7.80
2022-11-18T11:01:42.654Z,7.97
2022-11-18T11:02:42.559Z,7.91
2022-11-18T11:03:42.527Z,7.87
2022-11-18T11:04:42.548Z,7.91
2022-11-18T11:05:42.560Z,7.93
2022-11-18T11:06:42.533Z,7.94
2022-11-18T11:07:42.635Z,7.94
2022-11-18T11:08:42.492Z,7.83
2022-11-18T11:09:42.476Z,7.88
2022-11-18T11:10:42.498Z,7.80
2022-11-18T11:11:42.472Z,7.90
2022-11-18T11:12:42.562Z,8.03
2022-11-18T11:13:42.464Z,8.00
2022-11-18T11:14:42.434Z,7.77
2022-11-18T11:15:42.439Z,7.85
2022-11-18T11:16:42.452Z,7.88
2022-11-18T11:17:42.479Z,7.82
2022-11-18T11:18:42.416Z,8.05
2022-11-18T11:19:42.404Z,8.05
2022-11-18T11:20:42.396Z,8.03
2022-11-18T11:21:42.416Z,7.82
2022-11-18T11:22:42.389Z,7.82
2022-11-18T11:23:42.375Z,7.79
2022-11-18T11:24:42.459Z,7.85
2022-11-18T11:28:44.338Z,7.91
2022-11-18T11:29:42.345Z,7.82
2022-11-18T11:30:43.752Z,7.80
2022-11-18T11:31:42.332Z,7.76
2022-11-18T11:32:42.320Z,7.77
2022-11-18T11:33:42.297Z,7.80
2022-11-18T11:34:42.291Z,7.97
2022-11-18T11:35:42.306Z,8.10
2022-11-18T11:36:42.313Z,8.13
2022-11-18T11:37:42.267Z,8.10
2022-11-18T11:38:42.263Z,8.05
2022-11-18T11:39:42.273Z,8.00
2022-11-18T11:40:42.243Z,7.91
2022-11-18T11:41:42.273Z,7.76
2022-11-18T11:42:42.236Z,7.83
2022-11-18T11:43:42.229Z,7.80
2022-11-18T11:44:42.318Z,7.79
2022-11-18T11:45:42.207Z,7.69
2022-11-18T11:46:42.225Z,7.73
2022-11-18T11:47:42.223Z,7.67
2022-11-18T11:48:42.189Z,7.66
2022-11-18T11:49:42.187Z,7.69
2022-11-18T11:50:42.177Z,7.72
2022-11-18T11:51:42.208Z,7.67
2022-11-18T11:52:42.207Z,7.72
2022-11-18T11:53:42.151Z,7.58
2022-11-18T11:54:42.144Z,7.58
2022-11-18T11:55:42.138Z,7.43
2022-11-18T11:56:42.126Z,7.50
2022-11-18T11:57:42.156Z,7.42
2022-11-18T11:58:42.110Z,7.31
2022-11-18T11:59:42.106Z,7.24
2022-11-18T12:00:42.100Z,7.33
2022-11-18T12:01:42.084Z,7.40
2022-11-18T12:02:42.181Z,7.51
2022-11-18T12:03:44.891Z,7.50
2022-11-18T12:04:43.069Z,7.21
2022-11-18T12:05:42.052Z,7.35
2022-11-18T12:06:42.053Z,7.29
2022-11-18T12:07:42.108Z,7.32
2022-11-18T12:08:42.032Z,7.45
2022-11-18T12:09:42.036Z,7.45
2022-11-18T12:10:42.042Z,7.31
2022-11-18T12:11:42.021Z,7.21
2022-11-18T12:12:42.040Z,7.24
2022-11-18T12:13:42.005Z,7.21
2022-11-18T12:14:41.997Z,7.23
2022-11-18T12:15:42.012Z,7.17
2022-11-18T12:16:42.011Z,7.07
2022-11-18T12:17:42.016Z,7.18
2022-11-18T12:18:41.960Z,7.20
2022-11-18T12:19:41.955Z,7.15
2022-11-18T12:21:14.352Z,7.24
2022-11-18T12:21:41.977Z,7.29
2022-11-18T12:22:41.962Z,7.29
2022-11-18T12:23:41.920Z,7.17
2022-11-18T12:24:41.957Z,7.20
2022-11-18T12:25:41.905Z,7.24
2022-11-18T12:26:41.900Z,7.02
2022-11-18T12:27:41.912Z,6.96
2022-11-18T12:28:41.910Z,6.87
2022-11-18T12:29:41.874Z,6.85
2022-11-18T12:30:41.869Z,6.97
2022-11-18T12:31:41.879Z,6.89
2022-11-18T12:32:41.908Z,7.07
2022-11-18T12:33:41.881Z,6.84
2022-11-18T12:34:41.844Z,6.97
2022-11-18T12:35:41.856Z,6.97
2022-11-18T12:36:41.818Z,6.96
2022-11-18T12:37:41.840Z,6.88
2022-11-18T12:38:41.805Z,6.99
2022-11-18T12:39:41.798Z,6.95
2022-11-18T12:40:42.508Z,7.02
2022-11-18T12:41:41.793Z,6.97
2022-11-18T12:42:41.869Z,6.93
2022-11-18T12:43:41.790Z,7.03
2022-11-18T12:44:41.761Z,6.84
2022-11-18T12:45:41.760Z,6.93
2022-11-18T12:46:45.648Z,6.78
2022-11-18T12:47:42.877Z,6.82
2022-11-18T12:48:41.766Z,6.81
2022-11-18T12:49:41.732Z,6.88
2022-11-18T12:50:41.729Z,6.89
2022-11-18T12:51:41.702Z,6.85
2022-11-18T12:52:41.695Z,6.88
2022-11-18T12:53:41.717Z,6.81
2022-11-18T12:54:41.686Z,6.85
2022-11-18T12:55:41.721Z,6.87
2022-11-18T12:56:41.663Z,6.75
2022-11-18T12:57:41.669Z,6.81
2022-11-18T12:58:41.720Z,6.78
2022-11-18T12:59:41.654Z,6.85
2022-11-18T13:00:41.673Z,6.81
2022-11-18T13:01:41.631Z,6.74
2022-11-18T13:02:41.616Z,6.64
2022-11-18T13:03:41.645Z,6.66
2022-11-18T13:04:45.782Z,6.75
2022-11-18T13:05:43.599Z,6.82
2022-11-18T13:06:41.598Z,6.74
2022-11-18T13:07:41.668Z,6.70
2022-11-18T13:08:41.599Z,6.67
2022-11-18T13:09:41.566Z,6.64
2022-11-18T13:10:41.560Z,6.67
2022-11-18T13:11:41.621Z,6.63
2022-11-18T13:12:41.545Z,6.54
2022-11-18T13:13:41.562Z,6.42
2022-11-18T13:14:41.530Z,6.44
2022-11-18T13:15:41.541Z,6.42
2022-11-18T13:16:41.519Z,6.54
2022-11-18T13:17:41.502Z,6.49
2022-11-18T13:18:41.525Z,6.38
2022-11-18T13:19:41.487Z,6.36
2022-11-18T13:20:41.486Z,6.42
2022-11-18T13:21:41.472Z,6.27
2022-11-18T13:22:41.484Z,6.20